sensor_id;sensor_type;location;lat;lon;timestamp;temperature;humidity
8093;DHT22;4089;52.420;13.334;2023-09-18T00:01:04;19.60;99.90
8093;DHT22;4089;52.420;13.334;2023-09-18T00:03:32;19.50;99.90
8093;DHT22;4089;52.420;13.334;2023-09-18T00:05:59;19.50;99.90
8093;DHT22;4089;52.420;13.334;2023-09-18T00:08:26;19.50;99.90
8093;DHT22;4089;52.420;13.334;2023-09-18T00:10:54;19.50;99.90
8093;DHT22;4089;52.420;13.334;2023-09-18T00:13:22;19.40;99.90
8093;DHT22;4089;52.420;13.334;2023-09-18T00:15:49;19.50;99.90
8093;DHT22;4089;52.420;13.334;2023-09-18T00:18:18;19.40;99.90
8093;DHT22;4089;52.420;13.334;2023-09-18T00:20:45;19.40;99.90
8093;DHT22;4089;52.420;13.334;2023-09-18T00:23:12;19.40;99.90
8093;DHT22;4089;52.420;13.334;2023-09-18T00:25:39;19.40;99.90
8093;DHT22;4089;52.420;13.334;2023-09-18T00:28:09;19.40;99.90
8093;DHT22;4089;52.420;13.334;2023-09-18T00:30:38;19.40;99.90
8093;DHT22;4089;52.420;13.334;2023-09-18T00:33:09;19.40;99.90
8093;DHT22;4089;52.420;13.334;2023-09-18T00:35:36;19.30;99.90
8093;DHT22;4089;52.420;13.334;2023-09-18T00:38:02;19.30;99.90
8093;DHT22;4089;52.420;13.334;2023-09-18T00:40:30;19.30;99.90
8093;DHT22;4089;52.420;13.334;2023-09-18T00:42:57;19.30;99.90
8093;DHT22;4089;52.420;13.334;2023-09-18T00:45:24;19.30;99.90
8093;DHT22;4089;52.420;13.334;2023-09-18T00:47:51;19.20;99.90
8093;DHT22;4089;52.420;13.334;2023-09-18T00:50:18;19.20;99.90
8093;DHT22;4089;52.420;13.334;2023-09-18T00:52:45;19.20;99.90
8093;DHT22;4089;52.420;13.334;2023-09-18T00:55:12;19.10;99.90
8093;DHT22;4089;52.420;13.334;2023-09-18T00:57:40;19.10;99.90
8093;DHT22;4089;52.420;13.334;2023-09-18T01:00:08;19.10;99.90
8093;DHT22;4089;52.420;13.334;2023-09-18T01:02:35;19.00;99.90
8093;DHT22;4089;52.420;13.334;2023-09-18T01:05:02;19.00;99.90
8093;DHT22;4089;52.420;13.334;2023-09-18T01:07:29;19.00;99.90
8093;DHT22;4089;52.420;13.334;2023-09-18T01:09:56;19.00;99.90
8093;DHT22;4089;52.420;13.334;2023-09-18T01:12:46;18.90;99.90
8093;DHT22;4089;52.420;13.334;2023-09-18T01:15:26;18.90;99.90
8093;DHT22;4089;52.420;13.334;2023-09-18T01:17:57;18.90;99.90
8093;DHT22;4089;52.420;13.334;2023-09-18T01:20:24;18.80;99.90
8093;DHT22;4089;52.420;13.334;2023-09-18T01:22:50;18.80;99.90
8093;DHT22;4089;52.420;13.334;2023-09-18T01:25:17;18.80;99.90
8093;DHT22;4089;52.420;13.334;2023-09-18T01:27:44;18.80;99.90
8093;DHT22;4089;52.420;13.334;2023-09-18T01:30:11;18.80;99.90
8093;DHT22;4089;52.420;13.334;2023-09-18T01:32:39;18.70;99.90
8093;DHT22;4089;52.420;13.334;2023-09-18T01:35:08;18.70;99.90
8093;DHT22;4089;52.420;13.334;2023-09-18T01:37:37;18.70;99.90
8093;DHT22;4089;52.420;13.334;2023-09-18T01:40:05;18.60;99.90
8093;DHT22;4089;52.420;13.334;2023-09-18T01:42:34;18.60;99.90
8093;DHT22;4089;52.420;13.334;2023-09-18T01:45:02;18.60;99.90
8093;DHT22;4089;52.420;13.334;2023-09-18T01:47:29;18.60;99.90
8093;DHT22;4089;52.420;13.334;2023-09-18T01:49:57;18.60;99.90
8093;DHT22;4089;52.420;13.334;2023-09-18T01:52:23;18.60;99.90
8093;DHT22;4089;52.420;13.334;2023-09-18T01:54:50;18.50;99.90
8093;DHT22;4089;52.420;13.334;2023-09-18T01:57:17;18.40;99.90
8093;DHT22;4089;52.420;13.334;2023-09-18T01:59:44;18.30;99.90
8093;DHT22;4089;52.420;13.334;2023-09-18T02:02:12;18.30;99.90
8093;DHT22;4089;52.420;13.334;2023-09-18T02:04:50;18.30;99.90
8093;DHT22;4089;52.420;13.334;2023-09-18T02:07:35;18.30;99.90
8093;DHT22;4089;52.420;13.334;2023-09-18T02:10:02;18.30;99.90
8093;DHT22;4089;52.420;13.334;2023-09-18T02:12:30;18.30;99.90
8093;DHT22;4089;52.420;13.334;2023-09-18T02:14:56;18.30;99.90
8093;DHT22;4089;52.420;13.334;2023-09-18T02:17:25;18.20;99.90
8093;DHT22;4089;52.420;13.334;2023-09-18T02:19:52;18.20;99.90
8093;DHT22;4089;52.420;13.334;2023-09-18T02:22:19;18.20;99.90
8093;DHT22;4089;52.420;13.334;2023-09-18T02:24:45;18.20;99.90
8093;DHT22;4089;52.420;13.334;2023-09-18T02:27:12;18.20;99.90
8093;DHT22;4089;52.420;13.334;2023-09-18T02:29:42;18.20;99.90
8093;DHT22;4089;52.420;13.334;2023-09-18T02:32:09;18.20;99.90
8093;DHT22;4089;52.420;13.334;2023-09-18T02:34:37;18.20;99.90
8093;DHT22;4089;52.420;13.334;2023-09-18T02:37:03;18.20;99.90
8093;DHT22;4089;52.420;13.334;2023-09-18T02:39:30;18.10;99.90
8093;DHT22;4089;52.420;13.334;2023-09-18T02:41:57;18.10;99.90
8093;DHT22;4089;52.420;13.334;2023-09-18T02:44:24;18.10;99.90
8093;DHT22;4089;52.420;13.334;2023-09-18T02:46:51;18.10;99.90
8093;DHT22;4089;52.420;13.334;2023-09-18T02:49:17;18.10;99.90
8093;DHT22;4089;52.420;13.334;2023-09-18T02:51:44;18.10;99.90
8093;DHT22;4089;52.420;13.334;2023-09-18T02:54:11;18.00;99.90
8093;DHT22;4089;52.420;13.334;2023-09-18T02:56:38;18.10;99.90
8093;DHT22;4089;52.420;13.334;2023-09-18T02:59:05;18.10;99.90
8093;DHT22;4089;52.420;13.334;2023-09-18T03:01:32;18.10;99.90
8093;DHT22;4089;52.420;13.334;2023-09-18T03:03:59;18.10;99.90
8093;DHT22;4089;52.420;13.334;2023-09-18T03:06:26;18.20;99.90
8093;DHT22;4089;52.420;13.334;2023-09-18T03:08:52;18.20;99.90
8093;DHT22;4089;52.420;13.334;2023-09-18T03:11:20;18.20;99.90
8093;DHT22;4089;52.420;13.334;2023-09-18T03:13:47;18.10;99.90
8093;DHT22;4089;52.420;13.334;2023-09-18T03:16:14;18.20;99.90
8093;DHT22;4089;52.420;13.334;2023-09-18T03:18:41;18.10;99.90
8093;DHT22;4089;52.420;13.334;2023-09-18T03:21:08;18.10;99.90
8093;DHT22;4089;52.420;13.334;2023-09-18T03:23:35;18.00;99.90
8093;DHT22;4089;52.420;13.334;2023-09-18T03:26:02;17.90;99.90
8093;DHT22;4089;52.420;13.334;2023-09-18T03:28:29;17.90;99.90
8093;DHT22;4089;52.420;13.334;2023-09-18T03:30:57;17.90;99.90
8093;DHT22;4089;52.420;13.334;2023-09-18T03:33:24;17.80;99.90
8093;DHT22;4089;52.420;13.334;2023-09-18T03:35:52;17.80;99.90
8093;DHT22;4089;52.420;13.334;2023-09-18T03:38:22;17.70;99.90
8093;DHT22;4089;52.420;13.334;2023-09-18T03:40:49;17.70;99.90
8093;DHT22;4089;52.420;13.334;2023-09-18T03:43:16;17.70;99.90
8093;DHT22;4089;52.420;13.334;2023-09-18T03:45:44;17.70;99.90
8093;DHT22;4089;52.420;13.334;2023-09-18T03:48:11;17.60;99.90
8093;DHT22;4089;52.420;13.334;2023-09-18T03:50:38;17.60;99.90
8093;DHT22;4089;52.420;13.334;2023-09-18T03:53:06;17.60;99.90
8093;DHT22;4089;52.420;13.334;2023-09-18T03:55:34;17.50;99.90
8093;DHT22;4089;52.420;13.334;2023-09-18T03:58:01;17.50;99.90
8093;DHT22;4089;52.420;13.334;2023-09-18T04:00:28;17.50;99.90
8093;DHT22;4089;52.420;13.334;2023-09-18T04:02:54;17.50;99.90
8093;DHT22;4089;52.420;13.334;2023-09-18T04:05:22;17.40;99.90
8093;DHT22;4089;52.420;13.334;2023-09-18T04:07:49;17.40;99.90
8093;DHT22;4089;52.420;13.334;2023-09-18T04:10:16;17.40;99.90
8093;DHT22;4089;52.420;13.334;2023-09-18T04:12:49;17.40;99.90
8093;DHT22;4089;52.420;13.334;2023-09-18T04:15:20;17.40;99.90
8093;DHT22;4089;52.420;13.334;2023-09-18T04:17:47;17.30;99.90
8093;DHT22;4089;52.420;13.334;2023-09-18T04:20:15;17.30;99.90
8093;DHT22;4089;52.420;13.334;2023-09-18T04:22:46;17.30;99.90
8093;DHT22;4089;52.420;13.334;2023-09-18T04:25:17;17.30;99.90
8093;DHT22;4089;52.420;13.334;2023-09-18T04:27:46;17.20;99.90
8093;DHT22;4089;52.420;13.334;2023-09-18T04:30:13;17.20;99.90
8093;DHT22;4089;52.420;13.334;2023-09-18T04:32:40;17.20;99.90
8093;DHT22;4089;52.420;13.334;2023-09-18T04:35:08;17.20;99.90
8093;DHT22;4089;52.420;13.334;2023-09-18T04:37:37;17.20;99.90
8093;DHT22;4089;52.420;13.334;2023-09-18T04:40:06;17.20;99.90
8093;DHT22;4089;52.420;13.334;2023-09-18T04:42:37;17.20;99.90
8093;DHT22;4089;52.420;13.334;2023-09-18T04:45:04;17.20;99.90
8093;DHT22;4089;52.420;13.334;2023-09-18T04:47:32;17.20;99.90
8093;DHT22;4089;52.420;13.334;2023-09-18T04:49:59;17.20;99.90
8093;DHT22;4089;52.420;13.334;2023-09-18T04:52:26;17.20;99.90
8093;DHT22;4089;52.420;13.334;2023-09-18T04:54:52;17.20;99.90
8093;DHT22;4089;52.420;13.334;2023-09-18T04:57:21;17.30;99.90
8093;DHT22;4089;52.420;13.334;2023-09-18T04:59:49;17.30;99.90
8093;DHT22;4089;52.420;13.334;2023-09-18T05:02:31;17.30;99.90
8093;DHT22;4089;52.420;13.334;2023-09-18T05:04:58;17.30;99.90
8093;DHT22;4089;52.420;13.334;2023-09-18T05:07:25;17.30;99.90
8093;DHT22;4089;52.420;13.334;2023-09-18T05:09:52;17.30;99.90
8093;DHT22;4089;52.420;13.334;2023-09-18T05:12:19;17.40;99.90
8093;DHT22;4089;52.420;13.334;2023-09-18T05:14:46;17.40;99.90
8093;DHT22;4089;52.420;13.334;2023-09-18T05:17:15;17.50;99.90
8093;DHT22;4089;52.420;13.334;2023-09-18T05:19:43;17.50;99.90
8093;DHT22;4089;52.420;13.334;2023-09-18T05:22:11;17.60;99.90
8093;DHT22;4089;52.420;13.334;2023-09-18T05:24:41;17.60;99.90
8093;DHT22;4089;52.420;13.334;2023-09-18T05:27:08;17.70;99.90
8093;DHT22;4089;52.420;13.334;2023-09-18T05:29:35;17.70;99.90
8093;DHT22;4089;52.420;13.334;2023-09-18T05:32:04;17.80;99.90
8093;DHT22;4089;52.420;13.334;2023-09-18T05:34:31;17.80;99.90
8093;DHT22;4089;52.420;13.334;2023-09-18T05:36:58;17.90;99.90
8093;DHT22;4089;52.420;13.334;2023-09-18T05:39:25;18.00;99.90
8093;DHT22;4089;52.420;13.334;2023-09-18T05:41:52;18.10;99.90
8093;DHT22;4089;52.420;13.334;2023-09-18T05:44:19;18.20;99.90
8093;DHT22;4089;52.420;13.334;2023-09-18T05:46:46;18.30;99.90
8093;DHT22;4089;52.420;13.334;2023-09-18T05:49:13;18.30;99.90
8093;DHT22;4089;52.420;13.334;2023-09-18T05:51:40;18.40;99.90
8093;DHT22;4089;52.420;13.334;2023-09-18T05:54:06;18.50;99.90
8093;DHT22;4089;52.420;13.334;2023-09-18T05:56:33;18.50;99.90
8093;DHT22;4089;52.420;13.334;2023-09-18T05:59:00;18.60;99.90
8093;DHT22;4089;52.420;13.334;2023-09-18T06:01:27;18.70;99.90
8093;DHT22;4089;52.420;13.334;2023-09-18T06:03:55;18.80;99.90
8093;DHT22;4089;52.420;13.334;2023-09-18T06:06:22;18.80;99.90
8093;DHT22;4089;52.420;13.334;2023-09-18T06:08:48;18.90;99.90
8093;DHT22;4089;52.420;13.334;2023-09-18T06:11:15;18.90;99.90
8093;DHT22;4089;52.420;13.334;2023-09-18T06:13:42;19.00;99.90
8093;DHT22;4089;52.420;13.334;2023-09-18T06:16:09;19.10;99.90
8093;DHT22;4089;52.420;13.334;2023-09-18T06:18:36;19.10;99.90
8093;DHT22;4089;52.420;13.334;2023-09-18T06:21:05;19.20;99.90
8093;DHT22;4089;52.420;13.334;2023-09-18T06:23:32;19.30;99.90
8093;DHT22;4089;52.420;13.334;2023-09-18T06:25:59;19.40;99.90
8093;DHT22;4089;52.420;13.334;2023-09-18T06:28:26;19.50;99.90
8093;DHT22;4089;52.420;13.334;2023-09-18T06:30:53;19.60;99.90
8093;DHT22;4089;52.420;13.334;2023-09-18T06:33:23;19.70;99.90
8093;DHT22;4089;52.420;13.334;2023-09-18T06:35:49;19.80;99.90
8093;DHT22;4089;52.420;13.334;2023-09-18T06:38:18;19.80;99.90
8093;DHT22;4089;52.420;13.334;2023-09-18T06:40:46;19.90;99.90
8093;DHT22;4089;52.420;13.334;2023-09-18T06:43:14;19.90;99.90
8093;DHT22;4089;52.420;13.334;2023-09-18T06:45:41;20.00;99.90
8093;DHT22;4089;52.420;13.334;2023-09-18T06:48:08;20.20;99.90
8093;DHT22;4089;52.420;13.334;2023-09-18T06:50:34;20.20;99.90
8093;DHT22;4089;52.420;13.334;2023-09-18T06:53:03;20.30;99.90
8093;DHT22;4089;52.420;13.334;2023-09-18T06:55:30;20.40;99.90
8093;DHT22;4089;52.420;13.334;2023-09-18T06:57:56;20.40;99.90
8093;DHT22;4089;52.420;13.334;2023-09-18T07:00:23;20.50;99.90
8093;DHT22;4089;52.420;13.334;2023-09-18T07:02:52;20.70;99.90
8093;DHT22;4089;52.420;13.334;2023-09-18T07:05:19;20.80;99.90
8093;DHT22;4089;52.420;13.334;2023-09-18T07:07:46;20.80;99.90
8093;DHT22;4089;52.420;13.334;2023-09-18T07:10:13;20.90;99.90
8093;DHT22;4089;52.420;13.334;2023-09-18T07:12:39;21.00;99.90
8093;DHT22;4089;52.420;13.334;2023-09-18T07:15:07;21.10;99.90
8093;DHT22;4089;52.420;13.334;2023-09-18T07:17:34;21.20;99.90
8093;DHT22;4089;52.420;13.334;2023-09-18T07:20:02;21.30;99.90
8093;DHT22;4089;52.420;13.334;2023-09-18T07:22:44;21.40;99.90
8093;DHT22;4089;52.420;13.334;2023-09-18T07:25:11;21.50;99.90
8093;DHT22;4089;52.420;13.334;2023-09-18T07:27:38;21.60;99.90
8093;DHT22;4089;52.420;13.334;2023-09-18T07:30:11;21.70;99.90
8093;DHT22;4089;52.420;13.334;2023-09-18T07:32:42;21.80;99.90
8093;DHT22;4089;52.420;13.334;2023-09-18T07:35:10;21.90;99.90
8093;DHT22;4089;52.420;13.334;2023-09-18T07:37:37;21.90;99.90
8093;DHT22;4089;52.420;13.334;2023-09-18T07:40:06;22.10;99.90
8093;DHT22;4089;52.420;13.334;2023-09-18T07:42:33;22.20;99.90
8093;DHT22;4089;52.420;13.334;2023-09-18T07:45:00;22.20;99.90
8093;DHT22;4089;52.420;13.334;2023-09-18T07:47:26;22.30;99.90
8093;DHT22;4089;52.420;13.334;2023-09-18T07:49:54;22.40;99.90
8093;DHT22;4089;52.420;13.334;2023-09-18T07:52:21;22.40;99.90
8093;DHT22;4089;52.420;13.334;2023-09-18T07:54:48;22.50;99.90
8093;DHT22;4089;52.420;13.334;2023-09-18T07:57:15;22.60;99.90
8093;DHT22;4089;52.420;13.334;2023-09-18T07:59:42;22.70;99.90
8093;DHT22;4089;52.420;13.334;2023-09-18T08:02:09;22.80;99.90
8093;DHT22;4089;52.420;13.334;2023-09-18T08:04:36;22.90;99.90
8093;DHT22;4089;52.420;13.334;2023-09-18T08:07:04;22.90;99.90
8093;DHT22;4089;52.420;13.334;2023-09-18T08:09:33;23.10;99.90
8093;DHT22;4089;52.420;13.334;2023-09-18T08:12:05;23.10;99.90
8093;DHT22;4089;52.420;13.334;2023-09-18T08:14:34;23.30;99.90
8093;DHT22;4089;52.420;13.334;2023-09-18T08:17:04;23.40;99.90
8093;DHT22;4089;52.420;13.334;2023-09-18T08:19:34;23.60;99.90
8093;DHT22;4089;52.420;13.334;2023-09-18T08:22:02;23.70;99.90
8093;DHT22;4089;52.420;13.334;2023-09-18T08:24:31;23.80;99.90
8093;DHT22;4089;52.420;13.334;2023-09-18T08:26:58;23.90;99.90
8093;DHT22;4089;52.420;13.334;2023-09-18T08:29:25;24.00;99.90
8093;DHT22;4089;52.420;13.334;2023-09-18T08:31:52;24.20;99.90
8093;DHT22;4089;52.420;13.334;2023-09-18T08:34:19;24.30;99.90
8093;DHT22;4089;52.420;13.334;2023-09-18T08:36:49;24.40;99.90
8093;DHT22;4089;52.420;13.334;2023-09-18T08:39:16;24.40;99.90
8093;DHT22;4089;52.420;13.334;2023-09-18T08:41:43;24.50;99.90
8093;DHT22;4089;52.420;13.334;2023-09-18T08:44:12;24.60;99.90
8093;DHT22;4089;52.420;13.334;2023-09-18T08:46:40;24.60;99.90
8093;DHT22;4089;52.420;13.334;2023-09-18T08:49:07;24.70;99.90
8093;DHT22;4089;52.420;13.334;2023-09-18T08:51:35;24.70;99.90
8093;DHT22;4089;52.420;13.334;2023-09-18T08:54:04;24.90;99.90
8093;DHT22;4089;52.420;13.334;2023-09-18T08:56:32;25.00;99.90
8093;DHT22;4089;52.420;13.334;2023-09-18T08:59:00;25.00;99.90
8093;DHT22;4089;52.420;13.334;2023-09-18T09:01:27;25.10;99.90
8093;DHT22;4089;52.420;13.334;2023-09-18T09:03:54;25.10;99.90
8093;DHT22;4089;52.420;13.334;2023-09-18T09:06:22;25.20;99.90
8093;DHT22;4089;52.420;13.334;2023-09-18T09:08:49;25.30;99.90
8093;DHT22;4089;52.420;13.334;2023-09-18T09:11:17;25.50;99.90
8093;DHT22;4089;52.420;13.334;2023-09-18T09:13:46;25.60;99.90
8093;DHT22;4089;52.420;13.334;2023-09-18T09:16:13;25.60;99.90
8093;DHT22;4089;52.420;13.334;2023-09-18T09:18:49;25.60;99.90
8093;DHT22;4089;52.420;13.334;2023-09-18T09:21:17;25.70;99.90
8093;DHT22;4089;52.420;13.334;2023-09-18T09:23:46;25.70;99.90
8093;DHT22;4089;52.420;13.334;2023-09-18T09:26:20;25.70;99.90
8093;DHT22;4089;52.420;13.334;2023-09-18T09:28:47;25.70;99.90
8093;DHT22;4089;52.420;13.334;2023-09-18T09:31:29;25.80;99.90
8093;DHT22;4089;52.420;13.334;2023-09-18T09:33:57;25.80;99.90
8093;DHT22;4089;52.420;13.334;2023-09-18T09:36:26;26.00;99.90
8093;DHT22;4089;52.420;13.334;2023-09-18T09:38:55;26.20;99.90
8093;DHT22;4089;52.420;13.334;2023-09-18T09:41:27;26.40;99.90
8093;DHT22;4089;52.420;13.334;2023-09-18T09:43:55;26.40;99.90
8093;DHT22;4089;52.420;13.334;2023-09-18T09:46:23;26.30;99.90
8093;DHT22;4089;52.420;13.334;2023-09-18T09:49:04;26.30;99.90
8093;DHT22;4089;52.420;13.334;2023-09-18T09:51:32;26.30;99.90
8093;DHT22;4089;52.420;13.334;2023-09-18T09:53:59;26.30;99.90
8093;DHT22;4089;52.420;13.334;2023-09-18T09:56:47;26.30;99.90
8093;DHT22;4089;52.420;13.334;2023-09-18T09:59:15;26.30;99.90
8093;DHT22;4089;52.420;13.334;2023-09-18T10:01:43;26.20;99.90
8093;DHT22;4089;52.420;13.334;2023-09-18T10:04:14;26.30;99.90
8093;DHT22;4089;52.420;13.334;2023-09-18T10:06:51;26.40;99.90
8093;DHT22;4089;52.420;13.334;2023-09-18T10:09:20;26.50;99.90
8093;DHT22;4089;52.420;13.334;2023-09-18T10:11:52;26.50;99.90
8093;DHT22;4089;52.420;13.334;2023-09-18T10:14:21;26.50;99.90
8093;DHT22;4089;52.420;13.334;2023-09-18T10:16:53;26.50;99.90
8093;DHT22;4089;52.420;13.334;2023-09-18T10:19:32;26.60;99.90
8093;DHT22;4089;52.420;13.334;2023-09-18T10:24:47;26.50;99.90
8093;DHT22;4089;52.420;13.334;2023-09-18T10:27:18;26.50;99.90
8093;DHT22;4089;52.420;13.334;2023-09-18T10:29:49;26.50;99.90
8093;DHT22;4089;52.420;13.334;2023-09-18T10:32:18;26.30;99.90
8093;DHT22;4089;52.420;13.334;2023-09-18T10:34:48;26.20;99.90
8093;DHT22;4089;52.420;13.334;2023-09-18T10:37:15;26.20;99.90
8093;DHT22;4089;52.420;13.334;2023-09-18T10:39:42;26.20;99.90
8093;DHT22;4089;52.420;13.334;2023-09-18T10:42:17;26.20;99.90
8093;DHT22;4089;52.420;13.334;2023-09-18T10:44:45;26.20;99.90
8093;DHT22;4089;52.420;13.334;2023-09-18T10:47:12;26.20;99.90
8093;DHT22;4089;52.420;13.334;2023-09-18T10:49:41;26.30;99.90
8093;DHT22;4089;52.420;13.334;2023-09-18T10:52:12;26.30;99.90
8093;DHT22;4089;52.420;13.334;2023-09-18T10:54:42;26.40;99.90
8093;DHT22;4089;52.420;13.334;2023-09-18T10:57:08;26.50;99.90
8093;DHT22;4089;52.420;13.334;2023-09-18T10:59:44;26.60;99.90
8093;DHT22;4089;52.420;13.334;2023-09-18T11:02:14;26.60;99.90
8093;DHT22;4089;52.420;13.334;2023-09-18T11:04:44;26.50;99.90
8093;DHT22;4089;52.420;13.334;2023-09-18T11:07:21;26.50;99.90
8093;DHT22;4089;52.420;13.334;2023-09-18T11:09:48;26.40;99.90
8093;DHT22;4089;52.420;13.334;2023-09-18T11:12:17;26.40;99.90
8093;DHT22;4089;52.420;13.334;2023-09-18T11:14:57;26.20;99.90
8093;DHT22;4089;52.420;13.334;2023-09-18T11:20:18;26.20;99.90
8093;DHT22;4089;52.420;13.334;2023-09-18T11:22:48;26.10;99.90
8093;DHT22;4089;52.420;13.334;2023-09-18T11:25:34;26.10;99.90
8093;DHT22;4089;52.420;13.334;2023-09-18T11:28:02;26.10;99.90
8093;DHT22;4089;52.420;13.334;2023-09-18T11:30:30;26.10;99.90
8093;DHT22;4089;52.420;13.334;2023-09-18T11:32:59;26.10;99.90
8093;DHT22;4089;52.420;13.334;2023-09-18T11:35:27;26.10;99.90
8093;DHT22;4089;52.420;13.334;2023-09-18T11:38:06;26.00;99.90
8093;DHT22;4089;52.420;13.334;2023-09-18T11:40:36;26.00;99.90
8093;DHT22;4089;52.420;13.334;2023-09-18T11:43:26;26.00;99.90
8093;DHT22;4089;52.420;13.334;2023-09-18T11:46:00;25.90;99.90
8093;DHT22;4089;52.420;13.334;2023-09-18T11:48:30;26.00;99.90
8093;DHT22;4089;52.420;13.334;2023-09-18T11:51:00;25.90;99.90
8093;DHT22;4089;52.420;13.334;2023-09-18T11:53:34;25.90;99.90
8093;DHT22;4089;52.420;13.334;2023-09-18T11:56:02;25.90;99.90
8093;DHT22;4089;52.420;13.334;2023-09-18T11:58:30;25.90;99.90
8093;DHT22;4089;52.420;13.334;2023-09-18T12:00:57;26.00;99.90
8093;DHT22;4089;52.420;13.334;2023-09-18T12:03:30;26.10;99.90
8093;DHT22;4089;52.420;13.334;2023-09-18T12:06:01;26.20;99.90
8093;DHT22;4089;52.420;13.334;2023-09-18T12:08:29;26.40;99.90
8093;DHT22;4089;52.420;13.334;2023-09-18T12:10:58;26.60;99.90
8093;DHT22;4089;52.420;13.334;2023-09-18T12:13:26;26.70;99.90
8093;DHT22;4089;52.420;13.334;2023-09-18T12:16:03;26.90;99.90
8093;DHT22;4089;52.420;13.334;2023-09-18T12:18:32;27.00;99.90
8093;DHT22;4089;52.420;13.334;2023-09-18T12:21:02;27.10;99.90
8093;DHT22;4089;52.420;13.334;2023-09-18T12:23:41;27.00;99.90
8093;DHT22;4089;52.420;13.334;2023-09-18T12:26:13;26.90;99.90
8093;DHT22;4089;52.420;13.334;2023-09-18T12:28:44;26.80;99.90
8093;DHT22;4089;52.420;13.334;2023-09-18T12:31:12;26.70;99.90
8093;DHT22;4089;52.420;13.334;2023-09-18T12:33:40;26.50;99.90
8093;DHT22;4089;52.420;13.334;2023-09-18T12:36:08;26.50;99.90
8093;DHT22;4089;52.420;13.334;2023-09-18T12:38:36;26.50;99.90
8093;DHT22;4089;52.420;13.334;2023-09-18T12:41:05;26.50;99.90
8093;DHT22;4089;52.420;13.334;2023-09-18T12:43:38;26.40;99.90
8093;DHT22;4089;52.420;13.334;2023-09-18T12:46:07;26.30;99.90
8093;DHT22;4089;52.420;13.334;2023-09-18T12:48:41;26.30;99.90
8093;DHT22;4089;52.420;13.334;2023-09-18T12:51:13;26.30;99.90
8093;DHT22;4089;52.420;13.334;2023-09-18T12:53:41;26.20;99.90
8093;DHT22;4089;52.420;13.334;2023-09-18T12:56:11;26.20;99.90
8093;DHT22;4089;52.420;13.334;2023-09-18T12:58:42;26.20;99.90
8093;DHT22;4089;52.420;13.334;2023-09-18T13:01:29;26.20;99.90
8093;DHT22;4089;52.420;13.334;2023-09-18T13:03:56;26.10;99.90
8093;DHT22;4089;52.420;13.334;2023-09-18T13:06:23;26.00;99.90
8093;DHT22;4089;52.420;13.334;2023-09-18T13:08:51;26.00;99.90
8093;DHT22;4089;52.420;13.334;2023-09-18T13:11:20;25.90;99.90
8093;DHT22;4089;52.420;13.334;2023-09-18T13:13:57;25.90;99.90
8093;DHT22;4089;52.420;13.334;2023-09-18T13:16:25;25.80;99.90
8093;DHT22;4089;52.420;13.334;2023-09-18T13:18:52;25.80;99.90
8093;DHT22;4089;52.420;13.334;2023-09-18T13:21:19;25.90;99.90
8093;DHT22;4089;52.420;13.334;2023-09-18T13:23:47;25.80;99.90
8093;DHT22;4089;52.420;13.334;2023-09-18T13:26:14;25.70;99.90
8093;DHT22;4089;52.420;13.334;2023-09-18T13:28:42;25.70;99.90
8093;DHT22;4089;52.420;13.334;2023-09-18T13:31:09;25.70;99.90
8093;DHT22;4089;52.420;13.334;2023-09-18T13:33:39;25.60;99.90
8093;DHT22;4089;52.420;13.334;2023-09-18T13:36:11;25.60;99.90
8093;DHT22;4089;52.420;13.334;2023-09-18T13:38:38;25.60;99.90
8093;DHT22;4089;52.420;13.334;2023-09-18T13:41:05;25.50;99.90
8093;DHT22;4089;52.420;13.334;2023-09-18T13:43:32;25.50;99.90
8093;DHT22;4089;52.420;13.334;2023-09-18T13:46:02;25.30;99.90
8093;DHT22;4089;52.420;13.334;2023-09-18T13:48:31;25.10;99.90
8093;DHT22;4089;52.420;13.334;2023-09-18T13:50:59;25.10;99.90
8093;DHT22;4089;52.420;13.334;2023-09-18T13:53:28;25.00;99.90
8093;DHT22;4089;52.420;13.334;2023-09-18T13:55:56;25.00;99.90
8093;DHT22;4089;52.420;13.334;2023-09-18T13:58:23;24.90;99.90
8093;DHT22;4089;52.420;13.334;2023-09-18T14:00:50;25.00;99.90
8093;DHT22;4089;52.420;13.334;2023-09-18T14:03:17;24.90;99.90
8093;DHT22;4089;52.420;13.334;2023-09-18T14:05:45;24.90;99.90
8093;DHT22;4089;52.420;13.334;2023-09-18T14:08:12;24.80;99.90
8093;DHT22;4089;52.420;13.334;2023-09-18T14:10:39;24.90;99.90
8093;DHT22;4089;52.420;13.334;2023-09-18T14:13:06;24.90;99.90
8093;DHT22;4089;52.420;13.334;2023-09-18T14:15:40;24.90;99.90
8093;DHT22;4089;52.420;13.334;2023-09-18T14:18:07;24.90;99.90
8093;DHT22;4089;52.420;13.334;2023-09-18T14:20:34;24.90;99.90
8093;DHT22;4089;52.420;13.334;2023-09-18T14:23:01;24.80;99.90
8093;DHT22;4089;52.420;13.334;2023-09-18T14:25:30;24.60;99.90
8093;DHT22;4089;52.420;13.334;2023-09-18T14:27:56;24.50;99.90
8093;DHT22;4089;52.420;13.334;2023-09-18T14:30:23;24.60;99.90
8093;DHT22;4089;52.420;13.334;2023-09-18T14:32:56;24.60;99.90
8093;DHT22;4089;52.420;13.334;2023-09-18T14:35:23;24.60;99.90
8093;DHT22;4089;52.420;13.334;2023-09-18T14:37:50;24.60;99.90
8093;DHT22;4089;52.420;13.334;2023-09-18T14:40:17;24.60;99.90
8093;DHT22;4089;52.420;13.334;2023-09-18T14:42:44;24.60;99.90
8093;DHT22;4089;52.420;13.334;2023-09-18T14:45:11;24.60;99.90
8093;DHT22;4089;52.420;13.334;2023-09-18T14:47:39;24.60;99.90
8093;DHT22;4089;52.420;13.334;2023-09-18T14:50:06;24.60;99.90
8093;DHT22;4089;52.420;13.334;2023-09-18T14:52:35;24.60;99.90
8093;DHT22;4089;52.420;13.334;2023-09-18T14:55:02;24.70;99.90
8093;DHT22;4089;52.420;13.334;2023-09-18T14:57:30;24.70;99.90
8093;DHT22;4089;52.420;13.334;2023-09-18T15:00:00;24.70;99.90
8093;DHT22;4089;52.420;13.334;2023-09-18T15:02:27;24.70;99.90
8093;DHT22;4089;52.420;13.334;2023-09-18T15:04:58;24.70;99.90
8093;DHT22;4089;52.420;13.334;2023-09-18T15:07:26;24.80;99.90
8093;DHT22;4089;52.420;13.334;2023-09-18T15:09:54;24.90;99.90
8093;DHT22;4089;52.420;13.334;2023-09-18T15:12:20;24.90;99.90
8093;DHT22;4089;52.420;13.334;2023-09-18T15:14:47;24.90;99.90
8093;DHT22;4089;52.420;13.334;2023-09-18T15:17:14;24.90;99.90
8093;DHT22;4089;52.420;13.334;2023-09-18T15:19:41;24.90;99.90
8093;DHT22;4089;52.420;13.334;2023-09-18T15:22:09;24.90;99.90
8093;DHT22;4089;52.420;13.334;2023-09-18T15:24:38;24.90;99.90
8093;DHT22;4089;52.420;13.334;2023-09-18T15:27:05;24.80;99.90
8093;DHT22;4089;52.420;13.334;2023-09-18T15:29:32;24.90;99.90
8093;DHT22;4089;52.420;13.334;2023-09-18T15:32:01;24.80;99.90
8093;DHT22;4089;52.420;13.334;2023-09-18T15:34:32;24.80;99.90
8093;DHT22;4089;52.420;13.334;2023-09-18T15:36:59;24.80;99.90
8093;DHT22;4089;52.420;13.334;2023-09-18T15:39:26;24.70;99.90
8093;DHT22;4089;52.420;13.334;2023-09-18T15:41:56;24.70;99.90
8093;DHT22;4089;52.420;13.334;2023-09-18T15:44:23;24.70;99.90
8093;DHT22;4089;52.420;13.334;2023-09-18T15:46:49;24.60;99.90
8093;DHT22;4089;52.420;13.334;2023-09-18T15:49:16;24.50;99.90
8093;DHT22;4089;52.420;13.334;2023-09-18T15:51:45;24.50;99.90
8093;DHT22;4089;52.420;13.334;2023-09-18T15:54:12;24.50;99.90
8093;DHT22;4089;52.420;13.334;2023-09-18T15:56:39;24.50;99.90
8093;DHT22;4089;52.420;13.334;2023-09-18T15:59:07;24.40;99.90